Time;durP1;ratioP1;P1;durP2;ratioP2;P2;SDS_P1;SDS_P2;PMS_P1;PMS_P2;Temp;Humidity;BMP_temperature;BMP_pressure;BME280_temperature;BME280_humidity;BME280_pressure;Samples;Min_cycle;Max_cycle;Signal;HPM_P1;HPM_P2
2023/08/01 00:00:26;;;;;;;;;;;;;;;29.80;42.30;100384.55;102464;1305;61524;-81
2023/08/01 00:02:51;;;;;;;;;;;;;;;29.80;42.48;100383.64;102419;1300;61495;-81
2023/08/01 00:05:17;;;;;;;;;;;;;;;29.80;42.33;100386.36;102477;1305;61720;-81
2023/08/01 00:07:42;;;;;;;;;;;;;;;29.80;42.25;100389.05;102438;1300;61434;-81
2023/08/01 00:10:08;;;;;;;;;;;;;;;29.79;42.24;100389.69;102403;1300;61392;-81
2023/08/01 00:12:33;;;;;;;;;;;;;;;29.79;42.30;100387.89;102504;1300;61448;-81
2023/08/01 00:14:59;;;;;;;;;;;;;;;29.79;42.38;100385.05;102380;1300;61359;-81
2023/08/01 00:17:24;;;;;;;;;;;;;;;29.79;42.32;100388.27;102505;1300;61453;-83
2023/08/01 00:19:50;;;;;;;;;;;;;;;29.79;42.38;100390.66;102359;1300;62154;-81
2023/08/01 00:22:15;;;;;;;;;;;;;;;29.79;42.38;100389.52;102430;1300;61470;-82
2023/08/01 00:24:40;;;;;;;;;;;;;;;29.79;42.28;100389.93;102241;1300;61425;-82
2023/08/01 00:27:09;;;;;;;;;;;;;;;29.79;42.34;100386.14;102455;1300;61446;-82
2023/08/01 00:29:35;;;;;;;;;;;;;;;29.79;42.48;100382.15;102372;1303;63954;-82
2023/08/01 00:32:01;;;;;;;;;;;;;;;29.79;42.45;100379.27;102348;1305;61447;-81
2023/08/01 00:34:26;;;;;;;;;;;;;;;29.78;42.36;100373.35;102428;1300;61511;-82
2023/08/01 00:36:52;;;;;;;;;;;;;;;29.78;42.38;100374.61;102382;1300;61809;-82
2023/08/01 00:39:17;;;;;;;;;;;;;;;29.78;42.43;100373.90;102468;1300;61992;-82
2023/08/01 00:41:42;;;;;;;;;;;;;;;29.78;42.29;100370.29;102470;1300;61453;-82
2023/08/01 00:44:08;;;;;;;;;;;;;;;29.78;42.36;100368.79;102390;1300;61447;-82
2023/08/01 00:46:33;;;;;;;;;;;;;;;29.78;42.53;100367.94;102358;1303;61917;-82
2023/08/01 00:49:00;;;;;;;;;;;;;;;29.78;42.28;100368.15;102486;1300;61426;-82
2023/08/01 00:51:26;;;;;;;;;;;;;;;29.77;42.51;100363.33;102403;1305;61264;-82
2023/08/01 00:53:53;;;;;;;;;;;;;;;29.77;42.42;100356.38;102309;1299;61502;-82
2023/08/01 00:56:18;;;;;;;;;;;;;;;29.77;42.36;100349.48;102499;1300;61297;-82
2023/08/01 00:58:43;;;;;;;;;;;;;;;29.77;42.33;100349.69;102400;1299;61409;-82
2023/08/01 01:01:09;;;;;;;;;;;;;;;29.76;42.39;100340.85;102435;1300;62683;-82
2023/08/01 01:03:34;;;;;;;;;;;;;;;29.76;42.28;100339.23;102357;1304;61306;-82
2023/08/01 01:06:02;;;;;;;;;;;;;;;29.76;42.43;100336.53;102453;1299;61511;-82
2023/08/01 01:08:28;;;;;;;;;;;;;;;29.76;42.41;100341.06;102399;1300;61393;-82
2023/08/01 01:10:54;;;;;;;;;;;;;;;29.76;42.38;100339.84;102477;1302;62567;-82
2023/08/01 01:13:19;;;;;;;;;;;;;;;29.76;42.32;100336.77;102331;1300;61380;-82
2023/08/01 01:15:44;;;;;;;;;;;;;;;29.76;42.28;100331.67;102547;1300;61508;-82
2023/08/01 01:18:10;;;;;;;;;;;;;;;29.76;42.55;100326.63;102377;1305;61351;-82
2023/08/01 01:20:36;;;;;;;;;;;;;;;29.75;42.55;100325.55;102451;1299;61442;-82
2023/08/01 01:23:01;;;;;;;;;;;;;;;29.75;42.38;100325.55;102519;1300;61335;-82
2023/08/01 01:25:27;;;;;;;;;;;;;;;29.75;42.37;100321.61;102355;1300;61444;-82
2023/08/01 01:27:53;;;;;;;;;;;;;;;29.75;42.47;100321.65;102385;1300;61422;-81
2023/08/01 01:30:20;;;;;;;;;;;;;;;29.75;42.46;100324.67;102385;1303;65940;-81
2023/08/01 01:32:45;;;;;;;;;;;;;;;29.75;42.56;100325.07;102367;1304;61429;-81
2023/08/01 01:35:11;;;;;;;;;;;;;;;29.75;42.61;100320.93;102434;1301;62449;-82
2023/08/01 01:37:36;;;;;;;;;;;;;;;29.75;42.54;100317.48;102424;1302;61479;-82
2023/08/01 01:40:01;;;;;;;;;;;;;;;29.75;42.37;100316.23;102389;1300;61449;-81
2023/08/01 01:42:27;;;;;;;;;;;;;;;29.74;42.41;100314.44;102468;1300;61370;-81
2023/08/01 01:44:52;;;;;;;;;;;;;;;29.74;42.49;100319.72;102528;1300;61424;-82
2023/08/01 01:47:18;;;;;;;;;;;;;;;29.74;42.37;100319.71;102436;1300;61447;-82
2023/08/01 01:49:43;;;;;;;;;;;;;;;29.74;42.40;100313.73;102426;1304;62070;-82
2023/08/01 01:52:09;;;;;;;;;;;;;;;29.74;42.65;100319.05;102439;1305;61441;-82
2023/08/01 01:54:34;;;;;;;;;;;;;;;29.74;42.57;100318.74;102518;1302;67175;-82
2023/08/01 01:56:59;;;;;;;;;;;;;;;29.74;42.46;100324.10;102439;1300;62441;-82
2023/08/01 01:59:25;;;;;;;;;;;;;;;29.74;42.53;100325.77;102422;1300;61425;-82
2023/08/01 02:01:50;;;;;;;;;;;;;;;29.74;42.59;100326.82;102402;1300;61480;-82
2023/08/01 02:04:16;;;;;;;;;;;;;;;29.74;42.57;100327.41;102427;1300;61320;-82
2023/08/01 02:06:42;;;;;;;;;;;;;;;29.73;42.48;100323.45;102194;1300;64978;-82
2023/08/01 02:09:07;;;;;;;;;;;;;;;29.73;42.53;100324.34;102424;1300;61514;-82
2023/08/01 02:11:33;;;;;;;;;;;;;;;29.73;42.57;100327.61;102562;1300;61415;-82
2023/08/01 02:13:58;;;;;;;;;;;;;;;29.73;42.48;100329.77;102373;1300;61514;-82
2023/08/01 02:16:23;;;;;;;;;;;;;;;29.73;42.50;100330.73;102433;1300;61397;-82
2023/08/01 02:18:49;;;;;;;;;;;;;;;29.73;42.48;100331.48;102306;1304;61449;-82
2023/08/01 02:21:14;;;;;;;;;;;;;;;29.73;42.50;100334.36;102391;1300;61351;-82
2023/08/01 02:23:41;;;;;;;;;;;;;;;29.73;42.53;100335.80;102538;1300;63184;-82
2023/08/01 02:26:08;;;;;;;;;;;;;;;29.73;42.61;100338.17;102224;1300;61527;-82
2023/08/01 02:28:33;;;;;;;;;;;;;;;29.73;42.43;100339.64;102406;1300;61952;-82
2023/08/01 02:30:59;;;;;;;;;;;;;;;29.72;42.43;100340.26;102251;1305;61469;-82
2023/08/01 02:33:24;;;;;;;;;;;;;;;29.72;42.72;100340.80;102517;1300;61269;-82
2023/08/01 02:35:50;;;;;;;;;;;;;;;29.72;42.57;100343.89;102395;1300;61399;-82
2023/08/01 02:38:15;;;;;;;;;;;;;;;29.72;42.53;100342.05;102433;1300;61434;-82
2023/08/01 02:40:40;;;;;;;;;;;;;;;29.72;42.63;100345.40;102397;1300;61423;-82
2023/08/01 02:43:06;;;;;;;;;;;;;;;29.72;42.66;100345.94;102433;1303;61497;-82
2023/08/01 02:45:31;;;;;;;;;;;;;;;29.72;42.61;100347.36;102464;1305;62124;-82
2023/08/01 02:47:57;;;;;;;;;;;;;;;29.72;42.61;100348.45;102398;1300;62427;-82
2023/08/01 02:50:22;;;;;;;;;;;;;;;29.71;42.49;100348.52;102347;1300;61505;-82
2023/08/01 02:52:48;;;;;;;;;;;;;;;29.72;42.48;100352.84;102262;1299;62213;-82
2023/08/01 02:55:13;;;;;;;;;;;;;;;29.72;42.43;100351.04;102443;1300;61366;-82
2023/08/01 02:57:38;;;;;;;;;;;;;;;29.72;42.61;100351.59;102422;1300;62168;-82
2023/08/01 03:00:05;;;;;;;;;;;;;;;29.71;42.52;100352.92;102422;1300;61409;-82
2023/08/01 03:02:33;;;;;;;;;;;;;;;29.71;42.54;100352.54;102520;1300;61406;-82
2023/08/01 03:04:59;;;;;;;;;;;;;;;29.71;42.55;100357.64;102474;1302;61319;-82
2023/08/01 03:07:24;;;;;;;;;;;;;;;29.71;42.59;100360.86;102428;1300;61365;-83
2023/08/01 03:09:50;;;;;;;;;;;;;;;29.71;42.48;100361.95;102487;1300;61441;-82
2023/08/01 03:12:15;;;;;;;;;;;;;;;29.71;42.74;100362.02;102389;1300;61425;-82
2023/08/01 03:14:43;;;;;;;;;;;;;;;29.71;42.75;100369.95;102368;1300;61409;-82
2023/08/01 03:17:09;;;;;;;;;;;;;;;29.71;42.64;100372.33;102428;1300;61879;-82
2023/08/01 03:19:34;;;;;;;;;;;;;;;29.71;42.78;100368.89;102396;1300;62165;-82
2023/08/01 03:22:00;;;;;;;;;;;;;;;29.71;42.59;100367.48;102511;1300;61403;-82
2023/08/01 03:24:25;;;;;;;;;;;;;;;29.71;42.76;100366.92;102404;1300;64847;-82
2023/08/01 03:26:50;;;;;;;;;;;;;;;29.71;42.61;100369.23;102382;1301;61390;-82
2023/08/01 03:29:16;;;;;;;;;;;;;;;29.71;42.54;100371.44;102421;1300;61535;-82
2023/08/01 03:31:41;;;;;;;;;;;;;;;29.71;42.58;100372.73;102559;1300;61510;-82
2023/08/01 03:34:08;;;;;;;;;;;;;;;29.70;42.73;100372.23;102518;1299;61448;-82
2023/08/01 03:36:36;;;;;;;;;;;;;;;29.70;42.47;100373.33;102435;1300;63984;-82
2023/08/01 03:39:03;;;;;;;;;;;;;;;29.71;42.47;100370.55;102462;1300;65745;-82
2023/08/01 03:41:29;;;;;;;;;;;;;;;29.71;42.61;100373.45;102394;1300;61435;-82
2023/08/01 03:43:55;;;;;;;;;;;;;;;29.71;42.81;100373.79;102354;1300;61450;-82
2023/08/01 03:46:22;;;;;;;;;;;;;;;29.70;42.76;100372.02;102378;1305;61447;-82
2023/08/01 03:48:47;;;;;;;;;;;;;;;29.70;42.74;100368.59;102387;1305;61448;-82
2023/08/01 03:51:15;;;;;;;;;;;;;;;29.70;42.70;100368.21;102494;1300;61365;-82
2023/08/01 03:53:41;;;;;;;;;;;;;;;29.71;42.52;100368.38;102408;1300;61431;-82
2023/08/01 03:56:07;;;;;;;;;;;;;;;29.71;42.75;100370.73;102376;1299;61408;-82
2023/08/01 03:58:32;;;;;;;;;;;;;;;29.71;42.57;100371.08;102455;1299;61416;-82
2023/08/01 04:00:58;;;;;;;;;;;;;;;29.71;42.64;100369.27;102435;1299;61313;-82
2023/08/01 04:03:23;;;;;;;;;;;;;;;29.71;42.57;100366.34;102450;1305;61523;-82
2023/08/01 04:05:49;;;;;;;;;;;;;;;29.71;42.52;100366.92;102414;1299;61354;-82
2023/08/01 04:08:14;;;;;;;;;;;;;;;29.71;42.55;100368.73;102373;1304;61431;-82
2023/08/01 04:10:40;;;;;;;;;;;;;;;29.71;42.72;100370.33;102291;1306;61436;-82
2023/08/01 04:13:05;;;;;;;;;;;;;;;29.71;42.71;100372.67;102460;1300;61415;-82
2023/08/01 04:15:30;;;;;;;;;;;;;;;29.71;42.71;100373.59;102415;1300;61348;-82
2023/08/01 04:17:56;;;;;;;;;;;;;;;29.71;42.50;100374.13;102346;1299;62095;-82
2023/08/01 04:20:21;;;;;;;;;;;;;;;29.71;42.76;100376.11;102476;1300;61520;-82
2023/08/01 04:22:47;;;;;;;;;;;;;;;29.71;42.70;100376.10;102348;1305;61351;-82
2023/08/01 04:25:12;;;;;;;;;;;;;;;29.71;42.65;100377.05;102345;1300;61479;-82
2023/08/01 04:27:38;;;;;;;;;;;;;;;29.71;42.72;100382.11;102398;1300;61402;-82
2023/08/01 04:30:03;;;;;;;;;;;;;;;29.71;42.58;100385.91;102415;1300;61434;-82
2023/08/01 04:32:29;;;;;;;;;;;;;;;29.71;42.60;100383.55;102220;1308;61447;-82
2023/08/01 04:34:54;;;;;;;;;;;;;;;29.71;42.62;100384.27;102403;1302;61428;-82
2023/08/01 04:37:22;;;;;;;;;;;;;;;29.71;42.45;100382.13;102419;1305;61417;-82
2023/08/01 04:39:49;;;;;;;;;;;;;;;29.71;42.48;100380.90;102418;1304;61453;-82
2023/08/01 04:42:14;;;;;;;;;;;;;;;29.71;42.62;100380.45;102301;1300;61464;-82
2023/08/01 04:44:39;;;;;;;;;;;;;;;29.71;42.52;100384.27;102311;1302;61409;-82
2023/08/01 04:47:05;;;;;;;;;;;;;;;29.71;42.56;100387.90;102392;1305;61524;-82
2023/08/01 04:49:30;;;;;;;;;;;;;;;29.71;42.61;100393.33;102388;1300;61415;-82
2023/08/01 04:51:57;;;;;;;;;;;;;;;29.72;42.49;100393.84;102408;1300;61421;-82
2023/08/01 04:54:22;;;;;;;;;;;;;;;29.72;42.48;100390.58;102303;1300;61326;-82
2023/08/01 04:56:47;;;;;;;;;;;;;;;29.72;42.46;100393.84;102359;1300;61453;-82
2023/08/01 04:59:13;;;;;;;;;;;;;;;29.72;42.62;100392.77;102366;1300;61511;-82
2023/08/01 05:01:38;;;;;;;;;;;;;;;29.71;42.49;100396.02;102360;1300;61445;-82
2023/08/01 05:04:03;;;;;;;;;;;;;;;29.72;42.43;100394.56;102344;1300;61400;-82
2023/08/01 05:06:29;;;;;;;;;;;;;;;29.71;42.40;100398.58;102699;1305;61525;-82
2023/08/01 05:08:54;;;;;;;;;;;;;;;29.72;42.38;100393.64;102838;1303;61451;-82
2023/08/01 05:11:21;;;;;;;;;;;;;;;29.71;42.38;100398.77;102258;1306;61431;-82
2023/08/01 05:13:46;;;;;;;;;;;;;;;29.70;42.33;100402.41;102404;1305;61447;-82
2023/08/01 05:16:12;;;;;;;;;;;;;;;29.69;42.32;100404.30;102514;1300;62226;-82
2023/08/01 05:18:37;;;;;;;;;;;;;;;29.68;42.09;100401.73;102279;1300;61956;-82
2023/08/01 05:21:03;;;;;;;;;;;;;;;29.67;42.31;100400.91;102448;1302;61415;-82
2023/08/01 05:23:29;;;;;;;;;;;;;;;29.67;42.13;100399.31;102369;1305;61326;-82
2023/08/01 05:25:54;;;;;;;;;;;;;;;29.66;41.90;100399.89;102372;1299;61429;-82
2023/08/01 05:28:20;;;;;;;;;;;;;;;29.65;41.93;100401.45;102338;1303;61316;-82
2023/08/01 05:30:45;;;;;;;;;;;;;;;29.65;41.94;100408.70;102325;1302;61332;-82
2023/08/01 05:33:11;;;;;;;;;;;;;;;29.65;41.85;100408.91;102288;1300;61362;-82
2023/08/01 05:35:36;;;;;;;;;;;;;;;29.65;41.90;100404.59;102535;1300;61431;-82
2023/08/01 05:38:02;;;;;;;;;;;;;;;29.65;41.81;100402.08;102734;1299;61425;-82
2023/08/01 05:40:27;;;;;;;;;;;;;;;29.65;41.90;100399.52;102544;1300;61490;-81
2023/08/01 05:42:53;;;;;;;;;;;;;;;29.64;41.91;100399.55;102728;1300;61327;-82
2023/08/01 05:45:18;;;;;;;;;;;;;;;29.65;41.71;100400.98;102719;1306;61332;-82
2023/08/01 05:47:44;;;;;;;;;;;;;;;29.66;41.77;100402.88;102610;1300;61470;-81
2023/08/01 05:50:09;;;;;;;;;;;;;;;29.66;41.75;100403.38;102571;1300;61445;-82
2023/08/01 05:52:34;;;;;;;;;;;;;;;29.66;41.82;100403.42;102876;1299;61352;-82
2023/08/01 05:55:00;;;;;;;;;;;;;;;29.66;41.72;100406.59;102717;1300;62026;-82
2023/08/01 05:57:25;;;;;;;;;;;;;;;29.67;41.79;100402.40;102726;1300;61511;-82
2023/08/01 05:59:51;;;;;;;;;;;;;;;29.68;41.65;100401.01;102619;1308;61435;-82
2023/08/01 06:02:16;;;;;;;;;;;;;;;29.69;41.72;100405.63;102549;1300;61992;-82
2023/08/01 06:04:42;;;;;;;;;;;;;;;29.69;41.68;100402.34;102565;1300;61358;-82
2023/08/01 06:07:07;;;;;;;;;;;;;;;29.69;41.87;100405.38;102456;1300;61440;-81
2023/08/01 06:09:32;;;;;;;;;;;;;;;29.70;41.61;100403.41;102179;1309;61412;-82
2023/08/01 06:11:58;;;;;;;;;;;;;;;29.70;41.78;100397.63;102443;1300;62434;-82
2023/08/01 06:14:23;;;;;;;;;;;;;;;29.70;41.63;100396.20;102558;1300;61288;-81
2023/08/01 06:16:49;;;;;;;;;;;;;;;29.71;41.68;100393.04;102571;1300;61293;-81
2023/08/01 06:19:14;;;;;;;;;;;;;;;29.71;41.62;100398.91;102448;1300;61463;-82
2023/08/01 06:21:40;;;;;;;;;;;;;;;29.72;41.52;100397.23;102535;1300;61976;-82
2023/08/01 06:24:05;;;;;;;;;;;;;;;29.72;41.69;100398.63;102650;1300;61441;-82
2023/08/01 06:26:31;;;;;;;;;;;;;;;29.72;41.52;100401.60;102445;1300;61434;-82
2023/08/01 06:28:56;;;;;;;;;;;;;;;29.72;41.53;100403.94;102752;1300;61450;-82
2023/08/01 06:31:21;;;;;;;;;;;;;;;29.72;41.52;100399.93;102303;1300;61476;-82
2023/08/01 06:33:47;;;;;;;;;;;;;;;29.72;41.42;100400.88;102615;1300;61406;-82
2023/08/01 06:36:13;;;;;;;;;;;;;;;29.72;41.35;100397.03;102549;1305;61354;-81
2023/08/01 06:38:39;;;;;;;;;;;;;;;29.72;41.41;100395.98;102545;1300;61394;-82
2023/08/01 06:41:04;;;;;;;;;;;;;;;29.72;41.36;100396.83;102562;1305;61291;-82
2023/08/01 06:43:29;;;;;;;;;;;;;;;29.72;41.44;100399.17;102718;1302;61419;-82
2023/08/01 06:45:55;;;;;;;;;;;;;;;29.73;41.27;100400.17;102842;1305;61365;-81
2023/08/01 06:48:21;;;;;;;;;;;;;;;29.74;41.30;100394.70;102856;1300;61363;-82
2023/08/01 06:50:46;;;;;;;;;;;;;;;29.74;41.25;100394.06;102627;1305;61451;-82
2023/08/01 06:53:12;;;;;;;;;;;;;;;29.75;41.26;100389.98;102891;1300;62007;-82
2023/08/01 06:55:37;;;;;;;;;;;;;;;29.76;41.33;100393.19;102723;1306;61438;-82
2023/08/01 06:58:02;;;;;;;;;;;;;;;29.76;41.31;100387.00;103040;1303;61411;-82
2023/08/01 07:00:28;;;;;;;;;;;;;;;29.75;41.33;100385.98;102723;1307;61476;-82
2023/08/01 07:02:53;;;;;;;;;;;;;;;29.75;41.21;100387.29;102918;1303;61340;-82
2023/08/01 07:05:19;;;;;;;;;;;;;;;29.75;41.30;100388.59;102836;1300;61533;-82
2023/08/01 07:07:44;;;;;;;;;;;;;;;29.74;41.25;100381.90;103081;1300;61412;-82
2023/08/01 07:10:10;;;;;;;;;;;;;;;29.74;41.11;100381.90;102736;1300;266718;-82
2023/08/01 07:12:35;;;;;;;;;;;;;;;29.75;41.16;100380.16;102790;1302;61441;-82
2023/08/01 07:15:01;;;;;;;;;;;;;;;29.77;41.27;100384.13;102507;1300;61512;-82
2023/08/01 07:17:26;;;;;;;;;;;;;;;29.78;41.15;100384.07;102576;1300;61406;-82
2023/08/01 07:19:53;;;;;;;;;;;;;;;29.78;41.20;100378.59;102880;1304;61413;-82
2023/08/01 07:22:18;;;;;;;;;;;;;;;29.78;41.18;100379.34;102524;1300;61327;-82
2023/08/01 07:24:44;;;;;;;;;;;;;;;29.79;41.14;100377.29;103059;1305;61321;-82
2023/08/01 07:27:09;;;;;;;;;;;;;;;29.79;41.01;100381.45;102367;1300;61499;-82
2023/08/01 07:29:35;;;;;;;;;;;;;;;29.79;41.10;100384.29;102642;1300;61456;-82
2023/08/01 07:32:00;;;;;;;;;;;;;;;29.80;41.17;100382.25;102696;1303;61381;-82
2023/08/01 07:34:25;;;;;;;;;;;;;;;29.81;41.19;100378.68;103280;1305;61366;-82
2023/08/01 07:36:51;;;;;;;;;;;;;;;29.81;41.14;100379.19;102642;1303;61448;-82
2023/08/01 07:39:16;;;;;;;;;;;;;;;29.82;41.09;100377.30;102887;1300;61329;-81
2023/08/01 07:41:42;;;;;;;;;;;;;;;29.82;41.08;100374.35;102803;1300;61169;-82
2023/08/01 07:44:07;;;;;;;;;;;;;;;29.82;40.97;100374.17;102708;1300;61364;-82
2023/08/01 07:46:33;;;;;;;;;;;;;;;29.82;41.01;100375.98;102745;1300;61517;-82
2023/08/01 07:48:59;;;;;;;;;;;;;;;29.82;41.02;100379.00;102929;1307;61329;-82
2023/08/01 07:51:26;;;;;;;;;;;;;;;29.83;40.94;100378.27;103120;1305;61387;-82
2023/08/01 07:53:52;;;;;;;;;;;;;;;29.84;41.10;100377.07;102768;1300;61476;-82
2023/08/01 07:56:17;;;;;;;;;;;;;;;29.84;41.13;100375.36;102737;1299;61451;-81
2023/08/01 07:58:43;;;;;;;;;;;;;;;29.84;41.13;100370.83;103122;1305;61492;-82
2023/08/01 08:01:08;;;;;;;;;;;;;;;29.84;40.97;100367.77;102799;1306;61431;-82
2023/08/01 08:03:34;;;;;;;;;;;;;;;29.83;40.99;100366.02;102721;1305;61476;-82
2023/08/01 08:06:00;;;;;;;;;;;;;;;29.84;41.08;100365.23;102804;1305;61969;-82
2023/08/01 08:08:26;;;;;;;;;;;;;;;29.84;40.99;100361.23;102743;1300;61371;-82
2023/08/01 08:10:52;;;;;;;;;;;;;;;29.84;40.84;100362.33;103023;1305;61418;-82
2023/08/01 08:13:17;;;;;;;;;;;;;;;29.83;40.86;100356.08;103270;1305;61459;-82
2023/08/01 08:15:43;;;;;;;;;;;;;;;29.84;40.85;100364.06;103157;1300;62150;-82
2023/08/01 08:18:09;;;;;;;;;;;;;;;29.85;40.91;100354.77;102811;1300;61377;-82
2023/08/01 08:20:41;;;;;;;;;;;;;;;29.85;40.93;100354.58;102740;1300;62662;-82
2023/08/01 08:23:07;;;;;;;;;;;;;;;29.85;40.89;100357.43;103193;1305;66934;-82
2023/08/01 08:25:32;;;;;;;;;;;;;;;29.85;40.66;100356.89;103535;1303;61440;-82
2023/08/01 08:27:57;;;;;;;;;;;;;;;29.86;40.89;100361.02;103460;1300;61465;-82
2023/08/01 08:30:23;;;;;;;;;;;;;;;29.86;40.82;100362.45;103159;1308;61534;-82
2023/08/01 08:32:48;;;;;;;;;;;;;;;29.87;40.85;100362.38;102651;1300;61450;-81
2023/08/01 08:35:14;;;;;;;;;;;;;;;29.86;40.58;100356.43;102431;1300;61512;-82
2023/08/01 08:37:39;;;;;;;;;;;;;;;29.87;40.77;100358.67;102330;1302;61507;-81
2023/08/01 08:40:05;;;;;;;;;;;;;;;29.88;40.68;100362.56;102403;1306;61419;-81
2023/08/01 08:42:34;;;;;;;;;;;;;;;29.88;40.71;100349.84;102616;1305;61514;-82
2023/08/01 08:45:01;;;;;;;;;;;;;;;29.88;40.58;100348.27;102735;1302;65888;-82
2023/08/01 08:47:26;;;;;;;;;;;;;;;29.88;40.54;100349.84;102982;1302;62471;-82
2023/08/01 08:49:52;;;;;;;;;;;;;;;29.88;40.58;100348.05;102513;1302;61904;-82
2023/08/01 08:52:18;;;;;;;;;;;;;;;29.88;40.59;100351.65;102554;1305;61436;-82
2023/08/01 08:54:44;;;;;;;;;;;;;;;29.89;40.55;100351.23;102547;1306;62124;-82
2023/08/01 08:57:10;;;;;;;;;;;;;;;29.89;40.46;100347.98;102845;1305;61347;-82
2023/08/01 08:59:35;;;;;;;;;;;;;;;29.89;40.42;100345.67;102927;1299;61434;-82
2023/08/01 09:02:03;;;;;;;;;;;;;;;29.88;40.51;100342.66;102866;1302;61334;-82
2023/08/01 09:04:29;;;;;;;;;;;;;;;29.87;40.37;100339.96;102732;1305;63914;-82
2023/08/01 09:06:55;;;;;;;;;;;;;;;29.87;40.41;100338.88;102775;1300;61359;-82
2023/08/01 09:09:22;;;;;;;;;;;;;;;29.88;40.62;100336.45;102767;1306;61399;-82
2023/08/01 09:11:49;;;;;;;;;;;;;;;29.89;40.36;100334.92;103001;1300;61318;-82
2023/08/01 09:14:14;;;;;;;;;;;;;;;29.90;40.46;100336.33;102756;1302;61505;-82
2023/08/01 09:16:44;;;;;;;;;;;;;;;29.90;40.37;100337.14;102924;1300;66024;-82
2023/08/01 09:19:09;;;;;;;;;;;;;;;29.91;40.38;100336.67;102672;1305;61425;-82
2023/08/01 09:21:35;;;;;;;;;;;;;;;29.91;40.22;100335.25;102782;1302;61384;-82
2023/08/01 09:24:11;;;;;;;;;;;;;;;29.91;40.09;100335.38;102620;1299;61365;-82
2023/08/01 09:26:37;;;;;;;;;;;;;;;29.91;40.14;100333.73;102722;1300;65867;-82
2023/08/01 09:29:02;;;;;;;;;;;;;;;29.92;40.31;100325.14;102568;1305;61454;-82
2023/08/01 09:31:33;;;;;;;;;;;;;;;29.92;40.18;100323.64;102845;1306;61479;-82
2023/08/01 09:33:59;;;;;;;;;;;;;;;29.92;40.20;100322.92;102718;1300;63931;-82
2023/08/01 09:36:25;;;;;;;;;;;;;;;29.93;40.12;100321.94;102754;1304;61442;-82
2023/08/01 09:38:51;;;;;;;;;;;;;;;29.93;40.15;100318.81;102676;1300;61486;-82
2023/08/01 09:41:16;;;;;;;;;;;;;;;29.94;39.99;100319.83;102752;1304;61521;-82
2023/08/01 09:43:42;;;;;;;;;;;;;;;29.94;39.99;100313.67;102827;1306;61924;-82
2023/08/01 09:46:07;;;;;;;;;;;;;;;29.95;40.04;100312.89;102696;1305;61419;-82
2023/08/01 09:48:33;;;;;;;;;;;;;;;29.95;39.88;100311.95;102556;1300;66892;-82
2023/08/01 09:51:08;;;;;;;;;;;;;;;29.95;39.93;100309.41;102606;1306;61450;-82
2023/08/01 09:53:34;;;;;;;;;;;;;;;29.95;39.96;100308.27;102750;1305;61376;-82
2023/08/01 09:56:02;;;;;;;;;;;;;;;29.96;39.90;100303.90;102662;1305;61780;-82
2023/08/01 09:58:32;;;;;;;;;;;;;;;29.96;39.74;100299.85;102764;1301;66062;-82
2023/08/01 10:00:57;;;;;;;;;;;;;;;29.95;39.73;100297.20;102349;1304;61444;-82
2023/08/01 10:03:23;;;;;;;;;;;;;;;29.96;39.82;100295.36;102696;1306;61358;-82
2023/08/01 10:05:53;;;;;;;;;;;;;;;29.96;39.80;100291.02;102405;1306;61502;-82
2023/08/01 10:08:19;;;;;;;;;;;;;;;29.96;39.75;100284.07;102511;1304;65907;-82
2023/08/01 10:10:45;;;;;;;;;;;;;;;29.96;39.83;100285.70;102605;1304;61318;-82
2023/08/01 10:13:12;;;;;;;;;;;;;;;29.96;39.93;100280.08;103056;1302;61396;-82
2023/08/01 10:15:37;;;;;;;;;;;;;;;29.96;39.76;100283.35;102701;1301;61361;-82
2023/08/01 10:18:03;;;;;;;;;;;;;;;29.96;39.85;100284.65;102632;1302;61440;-82
2023/08/01 10:20:29;;;;;;;;;;;;;;;29.96;39.76;100285.70;102299;1306;61407;-82
2023/08/01 10:22:54;;;;;;;;;;;;;;;29.96;39.79;100283.17;102365;1307;61223;-82
2023/08/01 10:25:21;;;;;;;;;;;;;;;29.96;39.72;100279.75;102763;1300;61441;-82
2023/08/01 10:27:59;;;;;;;;;;;;;;;29.96;39.67;100274.85;102472;1310;63930;-82
2023/08/01 10:30:27;;;;;;;;;;;;;;;29.96;39.67;100269.75;102847;1305;66037;-82
2023/08/01 10:32:55;;;;;;;;;;;;;;;29.97;39.71;100269.68;102689;1305;61448;-82
2023/08/01 10:35:31;;;;;;;;;;;;;;;29.96;39.72;100266.79;102646;1302;61699;-82
2023/08/01 10:38:03;;;;;;;;;;;;;;;29.96;39.72;100263.73;102407;1303;63975;-82
2023/08/01 10:40:35;;;;;;;;;;;;;;;29.96;39.59;100259.74;102588;1305;65946;-82
2023/08/01 10:43:01;;;;;;;;;;;;;;;29.96;39.59;100258.66;102630;1305;62483;-82
2023/08/01 10:45:28;;;;;;;;;;;;;;;29.96;39.60;100257.40;102677;1305;61429;-82
2023/08/01 10:47:54;;;;;;;;;;;;;;;29.96;39.59;100256.30;102686;1308;61482;-82
2023/08/01 10:50:19;;;;;;;;;;;;;;;29.96;39.65;100252.09;102729;1304;61434;-82
2023/08/01 10:52:46;;;;;;;;;;;;;;;29.96;39.72;100252.81;102749;1304;61424;-82
2023/08/01 10:55:11;;;;;;;;;;;;;;;29.96;39.70;100246.28;102748;1305;61305;-82
2023/08/01 10:57:39;;;;;;;;;;;;;;;29.97;39.74;100241.16;102748;1302;61349;-82
2023/08/01 11:00:09;;;;;;;;;;;;;;;29.97;39.65;100237.20;103113;1302;61556;-81
2023/08/01 11:02:35;;;;;;;;;;;;;;;29.96;39.67;100236.10;102687;1302;61307;-83
2023/08/01 11:05:04;;;;;;;;;;;;;;;29.97;39.54;100238.45;102674;1306;61435;-82
2023/08/01 11:07:32;;;;;;;;;;;;;;;29.97;39.60;100237.13;102615;1302;64047;-82
2023/08/01 11:10:03;;;;;;;;;;;;;;;29.98;39.62;100229.63;102457;1300;61814;-82
2023/08/01 11:12:29;;;;;;;;;;;;;;;29.97;39.60;100230.18;102319;1308;61384;-82
2023/08/01 11:14:59;;;;;;;;;;;;;;;29.97;39.47;100223.14;102762;1303;61483;-82
2023/08/01 11:17:24;;;;;;;;;;;;;;;29.97;39.47;100220.41;102473;1301;64007;-82
2023/08/01 11:19:50;;;;;;;;;;;;;;;29.97;39.53;100215.90;102661;1306;61414;-82
2023/08/01 11:22:15;;;;;;;;;;;;;;;29.98;39.46;100214.22;102722;1303;61386;-82
2023/08/01 11:24:41;;;;;;;;;;;;;;;29.97;39.31;100206.81;102543;1300;61489;-82
2023/08/01 11:27:06;;;;;;;;;;;;;;;29.97;39.37;100201.78;102575;1305;61530;-82
2023/08/01 11:29:32;;;;;;;;;;;;;;;29.97;39.37;100197.18;102363;1306;61495;-82
2023/08/01 11:31:58;;;;;;;;;;;;;;;29.97;39.42;100194.84;102419;1305;61432;-82
2023/08/01 11:34:23;;;;;;;;;;;;;;;29.97;39.36;100194.12;102315;1304;61483;-83
2023/08/01 11:36:48;;;;;;;;;;;;;;;29.97;39.49;100197.39;102614;1302;61870;-82
2023/08/01 11:39:14;;;;;;;;;;;;;;;29.97;39.32;100193.74;102452;1300;61320;-82
2023/08/01 11:41:39;;;;;;;;;;;;;;;29.97;39.32;100191.19;102329;1300;63680;-82
2023/08/01 11:44:06;;;;;;;;;;;;;;;29.97;39.38;100186.29;102413;1306;61425;-82
2023/08/01 11:46:32;;;;;;;;;;;;;;;29.97;39.50;100187.93;102477;1303;61339;-82
2023/08/01 11:48:58;;;;;;;;;;;;;;;29.97;39.35;100179.60;102877;1304;61440;-82
2023/08/01 11:51:24;;;;;;;;;;;;;;;29.97;39.34;100173.07;102619;1304;61444;-82
2023/08/01 11:54:02;;;;;;;;;;;;;;;29.97;39.37;100171.98;102462;1302;61467;-82
2023/08/01 11:56:28;;;;;;;;;;;;;;;29.97;39.36;100165.69;102599;1306;61354;-82
2023/08/01 11:58:54;;;;;;;;;;;;;;;29.98;39.28;100163.77;102506;1302;61376;-82
2023/08/01 12:01:19;;;;;;;;;;;;;;;29.98;39.42;100165.71;102795;1300;61365;-82
2023/08/01 12:03:49;;;;;;;;;;;;;;;29.98;39.34;100165.55;102562;1302;61745;-82
2023/08/01 12:06:14;;;;;;;;;;;;;;;29.98;39.29;100158.44;102400;1300;61291;-82
2023/08/01 12:08:41;;;;;;;;;;;;;;;29.99;39.31;100154.03;102433;1306;61405;-82
2023/08/01 12:11:18;;;;;;;;;;;;;;;29.98;39.26;100155.20;102396;1300;61518;-82
2023/08/01 12:13:44;;;;;;;;;;;;;;;29.98;39.36;100150.68;102496;1305;65680;-82
2023/08/01 12:16:09;;;;;;;;;;;;;;;29.99;39.40;100152.20;102466;1305;61800;-82
2023/08/01 12:18:37;;;;;;;;;;;;;;;29.99;39.34;100150.52;102523;1300;61444;-82